createdAt,value
2022-08-22T00:02:29.535Z,19.77
2022-08-22T00:02:46.133Z,20.86
2022-08-22T00:07:54.716Z,19.77
2022-08-22T00:13:05.816Z,19.71
2022-08-22T00:18:14.921Z,19.68
2022-08-22T00:23:23.841Z,19.74
2022-08-22T00:28:32.781Z,19.73
2022-08-22T00:33:44.018Z,19.65
2022-08-22T00:38:55.519Z,19.61
2022-08-22T00:44:44.336Z,19.53
2022-08-22T00:50:21.984Z,19.57
2022-08-22T00:55:39.451Z,19.63
2022-08-22T01:00:45.625Z,19.49
2022-08-22T01:06:04.615Z,19.59
2022-08-22T01:11:27.005Z,19.57
2022-08-22T01:17:00.740Z,19.58
2022-08-22T01:22:45.137Z,19.60
2022-08-22T01:28:32.964Z,19.48
2022-08-22T01:34:12.932Z,19.56
2022-08-22T01:39:48.535Z,19.53
2022-08-22T01:45:05.938Z,19.42
2022-08-22T01:50:20.417Z,19.29
2022-08-22T01:55:33.091Z,19.21
2022-08-22T02:00:58.915Z,19.03
2022-08-22T02:06:07.437Z,18.79
2022-08-22T02:11:32.661Z,18.86
2022-08-22T02:16:40.063Z,18.88
2022-08-22T02:21:50.209Z,18.75
2022-08-22T02:27:08.294Z,18.74
2022-08-22T02:32:20.845Z,18.78
2022-08-22T02:37:35.305Z,18.88
2022-08-22T02:42:46.930Z,18.88
2022-08-22T02:47:58.432Z,18.98
2022-08-22T02:53:13.033Z,19.14
2022-08-22T02:58:21.994Z,19.30
2022-08-22T03:03:28.868Z,19.40
2022-08-22T03:08:38.841Z,19.34
2022-08-22T03:14:02.770Z,19.53
2022-08-22T03:19:18.857Z,19.10
2022-08-22T03:24:31.293Z,18.94
2022-08-22T03:29:39.771Z,19.01
2022-08-22T03:34:57.780Z,19.03
2022-08-22T03:40:04.606Z,18.97
2022-08-22T03:45:40.801Z,19.02
2022-08-22T03:51:10.037Z,18.98
2022-08-22T03:56:40.974Z,19.23
2022-08-22T04:02:35.205Z,19.45
2022-08-22T04:08:17.359Z,19.65
2022-08-22T04:13:50.775Z,19.89
2022-08-22T04:19:08.861Z,20.00
2022-08-22T04:24:40.051Z,20.17
2022-08-22T04:29:49.798Z,20.33
2022-08-22T04:34:58.803Z,20.60
2022-08-22T04:40:08.727Z,20.69
2022-08-22T04:45:17.622Z,20.38
2022-08-22T04:50:27.281Z,20.29
2022-08-22T04:55:36.672Z,20.44
2022-08-22T05:00:58.374Z,20.47
2022-08-22T05:06:06.251Z,20.36
2022-08-22T05:11:12.527Z,20.23
2022-08-22T05:16:22.472Z,20.39
2022-08-22T05:21:34.013Z,20.35
2022-08-22T05:26:40.022Z,20.37
2022-08-22T05:31:49.578Z,20.45
2022-08-22T05:36:59.082Z,20.41
2022-08-22T05:42:04.751Z,20.57
2022-08-22T05:47:27.055Z,20.67
2022-08-22T05:52:52.128Z,20.66
2022-08-22T05:58:11.694Z,20.64
2022-08-22T06:03:20.819Z,20.58
2022-08-22T06:08:31.000Z,20.51
2022-08-22T06:13:41.189Z,20.97
2022-08-22T06:18:46.158Z,21.05
2022-08-22T06:23:54.394Z,21.28
2022-08-22T06:29:02.400Z,21.44
2022-08-22T06:34:11.432Z,21.83
2022-08-22T06:39:22.967Z,22.28
2022-08-22T06:44:32.012Z,23.42
2022-08-22T06:49:37.348Z,24.05
2022-08-22T06:54:47.684Z,24.30
2022-08-22T06:59:53.203Z,23.90
2022-08-22T07:04:57.292Z,23.83
2022-08-22T07:10:02.756Z,24.81
2022-08-22T07:15:14.337Z,26.32
2022-08-22T07:20:28.140Z,25.58
2022-08-22T07:25:37.040Z,25.25
2022-08-22T07:30:51.667Z,27.08
2022-08-22T07:36:01.727Z,29.90
2022-08-22T07:41:15.391Z,32.48
2022-08-22T07:46:29.928Z,34.06
2022-08-22T07:51:37.429Z,35.17
2022-08-22T07:56:46.788Z,36.83
2022-08-22T08:01:54.341Z,37.56
2022-08-22T08:07:00.814Z,36.94
2022-08-22T08:12:07.191Z,36.96
2022-08-22T08:17:18.574Z,34.93
2022-08-22T08:22:26.141Z,33.69
2022-08-22T08:27:53.830Z,34.49
2022-08-22T08:33:25.692Z,34.48
2022-08-22T08:38:31.450Z,33.21
2022-08-22T08:43:45.162Z,33.02
2022-08-22T08:49:13.518Z,33.39
2022-08-22T08:54:33.375Z,33.25
2022-08-22T08:59:47.518Z,33.47
2022-08-22T09:05:27.415Z,32.27
2022-08-22T09:10:57.424Z,32.35
2022-08-22T09:16:19.452Z,32.38
2022-08-22T09:21:53.763Z,32.08
2022-08-22T09:27:02.177Z,32.73
2022-08-22T09:32:16.695Z,32.60
2022-08-22T09:37:30.910Z,32.28
2022-08-22T09:42:44.970Z,32.26
2022-08-22T09:48:07.092Z,31.44
2022-08-22T09:53:15.458Z,31.88
2022-08-22T09:58:27.946Z,31.64
2022-08-22T10:04:12.774Z,31.58
2022-08-22T10:09:31.226Z,31.51
2022-08-22T10:15:04.419Z,31.33
2022-08-22T10:20:21.788Z,30.55
2022-08-22T10:25:41.819Z,30.21
2022-08-22T10:30:55.050Z,30.40
2022-08-22T10:36:05.468Z,30.13
2022-08-22T10:41:18.971Z,30.19
2022-08-22T10:46:35.727Z,29.77
2022-08-22T10:51:47.722Z,29.42
2022-08-22T10:57:00.852Z,29.73
2022-08-22T11:02:20.285Z,29.62
2022-08-22T11:07:50.177Z,29.81
2022-08-22T11:13:08.825Z,30.07
2022-08-22T11:18:21.051Z,29.78
2022-08-22T11:23:38.659Z,29.76
2022-08-22T11:29:14.161Z,29.90
2022-08-22T11:34:43.998Z,29.64
2022-08-22T11:40:13.802Z,29.68
2022-08-22T11:45:21.855Z,29.57
2022-08-22T11:50:35.194Z,29.90
2022-08-22T11:55:45.629Z,29.69
2022-08-22T12:00:55.635Z,29.59
2022-08-22T12:06:04.974Z,29.46
2022-08-22T12:11:19.540Z,29.62
2022-08-22T12:16:28.946Z,29.54
2022-08-22T12:21:51.682Z,29.79
2022-08-22T12:27:28.466Z,29.67
2022-08-22T12:33:07.416Z,29.64
2022-08-22T12:38:37.417Z,29.73
2022-08-22T12:43:58.490Z,30.07
2022-08-22T12:49:18.617Z,30.01
2022-08-22T12:54:46.714Z,30.41
2022-08-22T12:59:58.114Z,30.42
2022-08-22T13:05:09.784Z,30.22
2022-08-22T13:10:36.796Z,30.14
2022-08-22T13:15:47.074Z,30.16
2022-08-22T13:20:59.758Z,29.93
2022-08-22T13:26:10.235Z,29.68
2022-08-22T13:31:28.024Z,29.56
2022-08-22T13:36:35.020Z,29.67
2022-08-22T13:41:48.678Z,29.38
2022-08-22T13:47:13.793Z,29.48
2022-08-22T13:52:30.214Z,29.44
2022-08-22T13:57:39.067Z,29.57
2022-08-22T14:02:57.457Z,29.28
2022-08-22T14:08:14.379Z,29.15
2022-08-22T14:13:43.995Z,29.06
2022-08-22T14:18:54.990Z,28.99
2022-08-22T14:24:03.866Z,28.90
2022-08-22T14:29:16.300Z,28.90
2022-08-22T14:34:22.514Z,28.95
2022-08-22T14:39:34.896Z,28.90
2022-08-22T14:44:45.886Z,28.94
2022-08-22T14:49:54.654Z,28.80
2022-08-22T14:55:18.139Z,28.70
2022-08-22T15:00:33.030Z,28.64
2022-08-22T15:05:52.297Z,28.56
2022-08-22T15:11:12.714Z,28.50
2022-08-22T15:16:21.060Z,28.45
2022-08-22T15:21:30.074Z,28.38
2022-08-22T15:26:37.658Z,28.35
2022-08-22T15:31:44.922Z,28.29
2022-08-22T15:37:10.031Z,28.19
2022-08-22T15:42:27.320Z,28.06
2022-08-22T15:47:39.910Z,27.96
2022-08-22T15:53:10.456Z,27.89
2022-08-22T15:58:23.534Z,27.71
2022-08-22T16:03:29.987Z,27.52
2022-08-22T16:08:55.660Z,27.40
2022-08-22T16:14:21.694Z,27.32
2022-08-22T16:19:28.317Z,27.17
2022-08-22T16:24:56.060Z,27.02
2022-08-22T16:30:17.720Z,26.92
2022-08-22T16:35:58.629Z,26.69
2022-08-22T16:41:05.274Z,26.52
2022-08-22T16:46:33.225Z,26.24
2022-08-22T16:52:26.381Z,26.04
2022-08-22T16:57:50.589Z,25.71
2022-08-22T17:03:11.905Z,25.56
2022-08-22T17:08:37.973Z,25.47
2022-08-22T17:13:59.980Z,25.46
2022-08-22T17:19:18.515Z,25.41
2022-08-22T17:24:37.140Z,25.37
2022-08-22T17:30:00.179Z,25.41
2022-08-22T17:35:16.195Z,25.40
2022-08-22T17:40:38.239Z,25.32
2022-08-22T17:46:05.556Z,25.29
2022-08-22T17:51:19.905Z,25.10
2022-08-22T17:56:29.564Z,25.08
2022-08-22T18:01:44.987Z,25.05
2022-08-22T18:06:56.155Z,25.02
2022-08-22T18:12:06.266Z,24.98
2022-08-22T18:17:26.621Z,24.94
2022-08-22T18:22:34.602Z,24.94
2022-08-22T18:27:48.153Z,24.88
2022-08-22T18:33:00.267Z,24.92
2022-08-22T18:38:19.589Z,24.82
2022-08-22T18:43:38.048Z,24.86
2022-08-22T18:49:05.397Z,24.80
2022-08-22T18:54:41.568Z,24.73
2022-08-22T19:00:02.911Z,24.60
2022-08-22T19:05:32.836Z,24.47
2022-08-22T19:10:47.458Z,24.31
2022-08-22T19:16:07.561Z,24.05
2022-08-22T19:21:39.592Z,24.28
2022-08-22T19:26:47.794Z,24.11
2022-08-22T19:31:52.779Z,24.01
2022-08-22T19:37:30.720Z,24.02
2022-08-22T19:42:43.193Z,23.93
2022-08-22T19:47:56.686Z,23.92
2022-08-22T19:53:34.174Z,23.94
2022-08-22T19:58:52.460Z,23.93
2022-08-22T20:04:00.402Z,23.85
2022-08-22T20:09:18.189Z,23.82
2022-08-22T20:14:30.933Z,23.76
2022-08-22T20:25:42.134Z,23.39
2022-08-22T20:30:50.239Z,23.15
2022-08-22T20:35:56.254Z,22.97
2022-08-22T20:41:12.733Z,22.83
2022-08-22T20:46:46.026Z,22.69
2022-08-22T20:51:55.595Z,22.58
2022-08-22T20:57:03.209Z,22.48
2022-08-22T21:02:14.765Z,22.41
2022-08-22T21:07:26.938Z,22.41
2022-08-22T21:12:33.255Z,22.47
2022-08-22T21:17:39.581Z,22.46
2022-08-22T21:22:43.403Z,22.51
2022-08-22T21:27:49.459Z,22.53
2022-08-22T21:32:56.405Z,22.54
2022-08-22T21:38:01.315Z,22.60
2022-08-22T21:43:09.640Z,22.67
2022-08-22T21:48:39.418Z,22.76
2022-08-22T21:53:42.796Z,22.74
2022-08-22T21:58:48.016Z,22.76
2022-08-22T22:03:51.432Z,22.73
2022-08-22T22:08:55.348Z,22.77
2022-08-22T22:14:00.261Z,22.77
2022-08-22T22:19:03.668Z,22.65
2022-08-22T22:24:07.505Z,22.51
2022-08-22T22:29:12.390Z,22.43
2022-08-22T22:34:16.039Z,22.30
2022-08-22T22:39:19.753Z,22.23
2022-08-22T22:44:25.658Z,22.26
2022-08-22T22:49:29.531Z,22.23
2022-08-22T22:54:32.999Z,22.24
2022-08-22T22:59:38.947Z,22.25
2022-08-22T23:04:46.194Z,22.25
2022-08-22T23:09:49.742Z,22.22
2022-08-22T23:14:54.813Z,22.24
2022-08-22T23:19:58.350Z,22.23
2022-08-22T23:25:01.913Z,22.25
2022-08-22T23:30:08.732Z,22.19
2022-08-22T23:35:12.187Z,22.12
2022-08-22T23:40:15.744Z,22.10
2022-08-22T23:45:21.856Z,21.94
2022-08-22T23:50:25.216Z,21.95
2022-08-22T23:55:28.635Z,21.94
